Time;durP1;ratioP1;P1;durP2;ratioP2;P2;SDS_P1;SDS_P2;PMS_P1;PMS_P2;Temp;Humidity;BMP_temperature;BMP_pressure;BME280_temperature;BME280_humidity;BME280_pressure;Samples;Min_cycle;Max_cycle;Signal;HPM_P1;HPM_P2
2021/05/28 00:00:31;;;;;;;5.80;3.03;;;20.30;93.70;;;;;;5088203;28;20183;-73
2021/05/28 00:02:58;;;;;;;5.03;2.90;;;20.30;93.90;;;;;;5089781;27;20254;-73
2021/05/28 00:05:24;;;;;;;5.30;2.90;;;20.30;93.60;;;;;;5131940;27;20249;-73
2021/05/28 00:07:54;;;;;;;11.07;3.03;;;20.50;93.60;;;;;;5081044;27;20549;-73
2021/05/28 00:10:24;;;;;;;6.53;2.70;;;20.50;93.70;;;;;;5085808;27;20190;-73
2021/05/28 00:12:51;;;;;;;9.90;3.00;;;20.40;93.50;;;;;;5113288;27;20184;-73
2021/05/28 00:15:21;;;;;;;5.93;2.90;;;20.30;93.50;;;;;;5104979;27;20220;-71
2021/05/28 00:17:55;;;;;;;10.30;2.90;;;20.30;93.40;;;;;;5119424;27;20284;-72
2021/05/28 00:20:24;;;;;;;5.27;3.03;;;20.20;93.40;;;;;;5090851;27;20523;-73
2021/05/28 00:22:58;;;;;;;8.10;3.40;;;20.20;93.40;;;;;;5107463;27;20217;-73
2021/05/28 00:25:29;;;;;;;8.27;3.33;;;20.20;93.40;;;;;;5103212;27;20181;-73
2021/05/28 00:28:00;;;;;;;7.60;3.10;;;20.30;93.30;;;;;;5106260;27;20632;-73
2021/05/28 00:30:31;;;;;;;6.13;2.93;;;20.40;93.20;;;;;;5110013;27;20181;-73
2021/05/28 00:33:00;;;;;;;6.47;2.90;;;20.40;93.00;;;;;;5112605;27;20185;-71
2021/05/28 00:35:29;;;;;;;5.17;2.70;;;20.40;92.50;;;;;;5102246;27;20238;-72
2021/05/28 00:38:00;;;;;;;3.53;2.73;;;20.30;92.70;;;;;;5105482;27;20177;-71
2021/05/28 00:40:30;;;;;;;7.73;3.00;;;20.40;92.70;;;;;;5106748;27;20272;-73
2021/05/28 00:43:01;;;;;;;6.60;2.70;;;20.40;92.20;;;;;;5088981;27;20208;-71
2021/05/28 00:45:30;;;;;;;7.47;2.90;;;20.30;91.80;;;;;;5105429;27;20184;-71
2021/05/28 00:47:57;;;;;;;5.50;2.57;;;20.20;91.40;;;;;;5104972;27;20724;-71
2021/05/28 00:50:29;;;;;;;9.87;3.17;;;20.20;91.00;;;;;;5089111;27;20185;-71
2021/05/28 00:52:58;;;;;;;5.47;2.40;;;20.10;90.70;;;;;;5086641;27;20193;-71
2021/05/28 00:55:29;;;;;;;10.77;2.53;;;20.10;90.30;;;;;;5127047;27;20193;-70
2021/05/28 00:57:56;;;;;;;7.27;2.23;;;20.10;89.90;;;;;;5107105;28;20186;-74
2021/05/28 01:00:27;;;;;;;9.23;2.60;;;20.10;88.70;;;;;;5089776;27;20245;-73
2021/05/28 01:02:55;;;;;;;7.63;2.57;;;20.10;86.90;;;;;;5107593;27;20204;-73
2021/05/28 01:05:22;;;;;;;9.77;2.47;;;20.30;85.00;;;;;;5117356;27;20276;-73
2021/05/28 01:07:53;;;;;;;10.20;2.60;;;20.30;84.50;;;;;;5092115;27;20244;-72
2021/05/28 01:10:20;;;;;;;11.83;2.70;;;20.40;82.80;;;;;;5102685;27;20190;-73
2021/05/28 01:12:52;;;;;;;11.37;2.50;;;20.30;82.00;;;;;;5105464;27;20238;-73
2021/05/28 01:15:21;;;;;;;11.30;2.50;;;20.00;81.80;;;;;;5089182;27;21107;-73
2021/05/28 01:17:48;;;;;;;11.40;2.37;;;19.90;80.80;;;;;;5104653;27;20197;-72
2021/05/28 01:20:14;;;;;;;19.73;2.60;;;20.00;80.50;;;;;;5107572;27;20303;-72
2021/05/28 01:22:40;;;;;;;9.17;2.50;;;20.30;78.70;;;;;;5090670;27;20560;-72
2021/05/28 01:25:08;;;;;;;14.40;2.67;;;20.40;78.50;;;;;;5109216;27;20173;-72
2021/05/28 01:27:34;;;;;;;11.40;2.40;;;20.40;77.20;;;;;;5104598;28;20307;-72
2021/05/28 01:30:02;;;;;;;9.27;1.97;;;20.50;76.90;;;;;;5106765;27;20630;-72
2021/05/28 01:32:28;;;;;;;10.93;2.33;;;20.30;77.40;;;;;;5104519;27;20189;-72
2021/05/28 01:34:55;;;;;;;11.27;2.30;;;20.10;77.20;;;;;;5107718;27;20196;-72
2021/05/28 01:37:21;;;;;;;10.57;2.73;;;20.10;76.90;;;;;;5107442;27;20187;-72
2021/05/28 01:39:50;;;;;;;12.17;2.17;;;20.20;77.10;;;;;;5107679;27;20296;-72
2021/05/28 01:42:19;;;;;;;10.67;2.40;;;20.20;76.60;;;;;;5086294;27;20375;-72
2021/05/28 01:44:46;;;;;;;11.43;2.40;;;20.20;76.10;;;;;;5100034;27;20761;-72
2021/05/28 01:47:13;;;;;;;12.57;2.37;;;20.30;76.60;;;;;;5104058;27;20208;-72
2021/05/28 01:49:41;;;;;;;10.97;2.70;;;20.20;77.20;;;;;;5112094;27;20181;-72
2021/05/28 01:52:25;;;;;;;22.30;2.90;;;20.10;76.70;;;;;;5086463;27;20180;-73
2021/05/28 01:54:56;;;;;;;10.30;2.17;;;20.20;76.60;;;;;;5116968;27;20181;-72
2021/05/28 01:57:31;;;;;;;15.37;2.57;;;20.20;76.50;;;;;;5122695;27;20217;-73
2021/05/28 01:59:59;;;;;;;13.20;2.53;;;20.20;76.50;;;;;;5103660;27;20180;-72
2021/05/28 02:02:26;;;;;;;10.43;2.60;;;20.20;77.20;;;;;;5122030;27;20239;-72
2021/05/28 02:04:52;;;;;;;13.00;2.47;;;20.00;77.40;;;;;;5108187;27;20204;-72
2021/05/28 02:07:19;;;;;;;5.27;1.90;;;19.80;78.10;;;;;;5089028;27;20205;-72
2021/05/28 02:09:45;;;;;;;9.67;2.63;;;19.90;79.20;;;;;;5110891;27;20590;-72
2021/05/28 02:12:12;;;;;;;17.90;2.57;;;20.00;79.80;;;;;;5103193;27;20184;-72
2021/05/28 02:14:38;;;;;;;12.43;2.70;;;20.10;80.40;;;;;;5085575;27;20189;-72
2021/05/28 02:17:10;;;;;;;9.43;2.70;;;20.10;80.90;;;;;;5120654;27;20694;-72
2021/05/28 02:19:36;;;;;;;19.27;3.00;;;20.10;80.90;;;;;;5082998;27;20169;-72
2021/05/28 02:22:03;;;;;;;10.67;2.27;;;20.20;80.70;;;;;;5095732;28;20204;-72
2021/05/28 02:24:29;;;;;;;8.40;2.47;;;20.20;81.10;;;;;;5085933;27;20229;-72
2021/05/28 02:26:56;;;;;;;11.43;3.10;;;20.20;81.30;;;;;;5121967;27;20727;-72
2021/05/28 02:29:23;;;;;;;12.13;2.70;;;20.20;81.50;;;;;;5105187;27;20267;-73
2021/05/28 02:31:50;;;;;;;12.37;2.73;;;20.20;81.90;;;;;;5100507;27;20682;-72
2021/05/28 02:34:16;;;;;;;11.73;2.70;;;20.20;81.40;;;;;;5106076;27;20185;-73
2021/05/28 02:36:42;;;;;;;7.97;2.57;;;20.00;81.70;;;;;;5090816;27;20173;-72
2021/05/28 02:39:09;;;;;;;16.27;3.10;;;20.00;82.60;;;;;;5104816;27;20602;-72
2021/05/28 02:41:35;;;;;;;12.67;2.70;;;20.10;81.00;;;;;;5122016;27;20250;-72
2021/05/28 02:44:04;;;;;;;11.87;2.57;;;20.10;81.40;;;;;;5107760;27;20200;-72
2021/05/28 02:46:34;;;;;;;12.20;2.50;;;20.10;81.00;;;;;;5123942;27;20212;-73
2021/05/28 02:49:04;;;;;;;8.33;2.77;;;20.10;81.30;;;;;;5121746;27;20200;-72
2021/05/28 02:51:31;;;;;;;9.03;2.73;;;20.00;82.20;;;;;;5106053;27;20189;-72
2021/05/28 02:53:57;;;;;;;10.23;2.37;;;19.90;82.40;;;;;;5111395;27;20196;-73
2021/05/28 02:56:23;;;;;;;13.93;2.80;;;19.90;82.30;;;;;;5102213;28;20637;-72
2021/05/28 02:58:49;;;;;;;11.47;2.30;;;19.80;82.30;;;;;;5103254;27;20211;-72
2021/05/28 03:01:16;;;;;;;10.60;2.70;;;19.80;82.30;;;;;;5122472;27;20239;-72
2021/05/28 03:03:42;;;;;;;12.07;2.77;;;19.80;82.50;;;;;;5084827;27;20419;-72
2021/05/28 03:06:08;;;;;;;7.07;2.67;;;19.70;83.00;;;;;;5103294;27;20228;-72
2021/05/28 03:08:34;;;;;;;10.97;2.70;;;19.80;83.00;;;;;;5087596;28;20642;-72
2021/05/28 03:11:01;;;;;;;8.37;2.47;;;19.90;82.70;;;;;;5101287;27;20246;-72
2021/05/28 03:13:28;;;;;;;14.90;3.10;;;20.00;82.20;;;;;;5085677;27;20641;-72
2021/05/28 03:15:55;;;;;;;13.30;2.63;;;19.90;82.20;;;;;;5085118;28;20192;-72
2021/05/28 03:18:23;;;;;;;10.63;2.50;;;20.00;82.00;;;;;;5087610;28;20215;-73
2021/05/28 03:20:56;;;;;;;14.67;2.43;;;20.10;82.40;;;;;;5090625;28;20173;-72
2021/05/28 03:23:26;;;;;;;16.10;2.93;;;20.20;82.00;;;;;;5105860;28;20213;-72
2021/05/28 03:25:53;;;;;;;11.13;2.73;;;20.30;83.40;;;;;;5087563;28;20216;-72
2021/05/28 03:28:19;;;;;;;6.43;2.67;;;20.30;83.20;;;;;;5086821;28;20766;-72
2021/05/28 03:30:45;;;;;;;9.47;2.60;;;20.40;84.40;;;;;;5117916;28;20189;-72
2021/05/28 03:33:12;;;;;;;13.67;2.90;;;20.40;84.90;;;;;;5122542;27;20545;-73
2021/05/28 03:35:38;;;;;;;9.63;2.67;;;20.30;85.70;;;;;;5101673;28;20850;-72
2021/05/28 03:38:04;;;;;;;8.63;2.67;;;20.10;86.10;;;;;;5107272;27;20185;-72
2021/05/28 03:40:30;;;;;;;9.97;2.70;;;20.10;86.80;;;;;;5122218;27;20174;-72
2021/05/28 03:42:56;;;;;;;12.20;2.37;;;20.00;88.20;;;;;;5107984;27;20208;-72
2021/05/28 03:45:23;;;;;;;13.93;3.00;;;19.70;89.70;;;;;;5109850;27;20178;-72
2021/05/28 03:47:49;;;;;;;11.97;2.77;;;19.70;89.90;;;;;;5110361;27;20181;-72
2021/05/28 03:50:15;;;;;;;7.67;2.53;;;19.80;89.80;;;;;;5131370;27;20184;-72
2021/05/28 03:52:41;;;;;;;13.03;2.47;;;19.90;90.20;;;;;;5106843;27;20312;-73
2021/05/28 03:55:09;;;;;;;12.93;2.47;;;19.60;91.10;;;;;;5107818;27;20936;-72
2021/05/28 03:57:35;;;;;;;15.73;3.00;;;19.40;91.70;;;;;;5101902;27;20193;-72
2021/05/28 04:00:03;;;;;;;12.33;2.67;;;19.30;92.00;;;;;;5110355;27;20189;-72
2021/05/28 04:02:29;;;;;;;9.97;2.53;;;19.20;92.50;;;;;;5110714;27;20683;-72
2021/05/28 04:04:56;;;;;;;6.43;2.27;;;19.10;92.90;;;;;;5112654;27;20201;-72
2021/05/28 04:07:24;;;;;;;10.73;2.40;;;19.10;93.10;;;;;;5108866;27;20236;-72
2021/05/28 04:09:51;;;;;;;11.07;2.53;;;19.10;93.60;;;;;;5109488;27;20200;-72
2021/05/28 04:12:17;;;;;;;10.60;2.57;;;19.10;93.60;;;;;;5093775;27;20181;-73
2021/05/28 04:14:43;;;;;;;8.10;2.70;;;19.10;93.00;;;;;;5127662;27;20205;-72
2021/05/28 04:17:10;;;;;;;13.40;3.00;;;19.30;91.10;;;;;;5088698;27;20197;-72
2021/05/28 04:19:37;;;;;;;17.33;3.03;;;19.50;90.40;;;;;;5107266;27;20649;-73
2021/05/28 04:22:03;;;;;;;16.20;2.77;;;19.60;90.70;;;;;;5108078;27;20189;-73
2021/05/28 04:24:29;;;;;;;15.07;3.03;;;19.60;90.80;;;;;;5107790;27;21136;-72
2021/05/28 04:27:16;;;;;;;6.53;2.67;;;19.80;90.30;;;;;;5092462;27;20575;-75
2021/05/28 04:29:42;;;;;;;12.50;2.90;;;20.10;88.40;;;;;;5077711;28;20201;-74
2021/05/28 04:32:09;;;;;;;14.07;3.17;;;20.30;90.20;;;;;;5070117;28;20286;-74
2021/05/28 04:34:37;;;;;;;14.37;2.97;;;20.40;90.20;;;;;;5078111;28;20269;-74
2021/05/28 04:37:03;;;;;;;15.80;3.03;;;20.50;90.90;;;;;;5079494;28;20611;-74
2021/05/28 04:39:30;;;;;;;9.97;2.50;;;20.70;92.20;;;;;;5071697;28;20190;-74
2021/05/28 04:41:56;;;;;;;9.37;2.60;;;20.80;93.70;;;;;;5078240;28;20198;-74
2021/05/28 04:44:23;;;;;;;9.37;2.87;;;20.90;94.10;;;;;;5076778;28;20864;-74
2021/05/28 04:46:50;;;;;;;15.00;2.80;;;21.10;95.70;;;;;;5064823;28;20344;-73
2021/05/28 04:49:16;;;;;;;13.20;2.67;;;21.10;96.10;;;;;;5071886;28;20237;-75
2021/05/28 04:51:42;;;;;;;7.47;2.83;;;21.10;96.90;;;;;;5072733;28;20202;-72
2021/05/28 04:54:09;;;;;;;9.63;2.70;;;21.10;97.20;;;;;;5075469;28;20187;-72
2021/05/28 04:56:35;;;;;;;10.30;2.23;;;21.20;97.80;;;;;;5085084;28;20194;-72
2021/05/28 04:59:01;;;;;;;9.63;2.60;;;21.60;96.30;;;;;;5062967;28;20231;-72
2021/05/28 05:01:27;;;;;;;13.83;2.57;;;21.80;95.20;;;;;;5077710;28;20225;-72
2021/05/28 05:03:54;;;;;;;9.47;2.60;;;21.90;94.00;;;;;;5074982;28;20250;-72
2021/05/28 05:06:20;;;;;;;8.37;2.53;;;21.90;94.00;;;;;;5076178;28;20214;-72
2021/05/28 05:08:46;;;;;;;10.30;2.53;;;21.90;95.90;;;;;;5071928;28;20194;-72
2021/05/28 05:11:12;;;;;;;14.73;2.73;;;21.90;95.40;;;;;;5075931;28;20190;-73
2021/05/28 05:13:39;;;;;;;7.87;2.80;;;22.00;95.10;;;;;;5069997;28;20186;-74
2021/05/28 05:16:05;;;;;;;8.50;2.40;;;21.90;95.00;;;;;;5059379;28;20699;-72
2021/05/28 05:18:31;;;;;;;11.53;2.67;;;21.90;93.60;;;;;;5073722;28;20195;-72
2021/05/28 05:20:57;;;;;;;10.30;3.07;;;22.00;93.80;;;;;;5073604;28;20205;-72
2021/05/28 05:23:24;;;;;;;9.60;2.70;;;22.10;94.10;;;;;;5077003;28;20198;-72
2021/05/28 05:25:50;;;;;;;8.97;2.57;;;22.10;93.80;;;;;;5090266;28;20210;-72
2021/05/28 05:28:16;;;;;;;10.53;2.97;;;22.20;94.40;;;;;;5074739;28;20195;-72
2021/05/28 05:30:42;;;;;;;11.33;2.67;;;22.30;92.10;;;;;;5073379;28;20186;-73
2021/05/28 05:33:11;;;;;;;9.37;2.70;;;22.60;91.30;;;;;;5074367;28;20195;-73
2021/05/28 05:35:38;;;;;;;10.10;2.60;;;22.90;91.10;;;;;;5074537;28;20208;-72
2021/05/28 05:38:08;;;;;;;14.07;2.47;;;22.90;91.40;;;;;;5066983;28;20249;-72
2021/05/28 05:40:36;;;;;;;15.87;3.10;;;22.90;90.90;;;;;;5058112;28;20199;-73
2021/05/28 05:43:03;;;;;;;5.87;2.13;;;23.00;90.90;;;;;;5063034;28;20203;-72
2021/05/28 05:45:29;;;;;;;10.73;2.27;;;23.00;90.60;;;;;;5048586;28;20670;-73
2021/05/28 05:47:56;;;;;;;10.60;2.40;;;23.00;91.30;;;;;;5063772;28;20190;-73
2021/05/28 05:50:22;;;;;;;9.93;2.33;;;23.20;88.80;;;;;;5046168;28;20187;-74
2021/05/28 05:52:53;;;;;;;9.20;2.37;;;23.20;88.20;;;;;;5062800;28;20271;-75
2021/05/28 05:55:22;;;;;;;12.07;2.80;;;23.30;89.80;;;;;;5062627;28;20717;-74
2021/05/28 05:57:48;;;;;;;8.33;2.27;;;23.50;86.90;;;;;;5063825;28;20187;-74
2021/05/28 06:00:15;;;;;;;16.10;2.73;;;23.70;86.10;;;;;;5058556;28;20203;-74
2021/05/28 06:02:42;;;;;;;10.13;2.07;;;23.70;84.50;;;;;;5062809;28;20183;-75
2021/05/28 06:05:09;;;;;;;13.77;2.50;;;23.80;84.30;;;;;;5060810;28;20230;-73
2021/05/28 06:07:35;;;;;;;11.57;2.33;;;24.00;86.00;;;;;;5056618;28;20266;-74
2021/05/28 06:10:02;;;;;;;12.20;2.30;;;24.00;86.10;;;;;;5063786;28;20249;-75
2021/05/28 06:12:29;;;;;;;8.87;2.10;;;24.00;85.70;;;;;;5059877;28;20916;-74
2021/05/28 06:14:55;;;;;;;6.37;2.10;;;24.00;88.30;;;;;;5061277;28;20702;-74
2021/05/28 06:17:22;;;;;;;17.73;2.70;;;24.30;84.10;;;;;;5060484;28;20187;-74
2021/05/28 06:19:48;;;;;;;8.20;2.50;;;24.40;84.50;;;;;;5065908;28;20210;-74
2021/05/28 06:22:20;;;;;;;11.80;2.20;;;24.60;82.80;;;;;;5063923;28;20244;-74
2021/05/28 06:24:51;;;;;;;14.87;2.97;;;24.50;80.40;;;;;;5042563;28;20755;-73
2021/05/28 06:27:18;;;;;;;9.57;2.53;;;24.50;81.50;;;;;;5045125;28;20841;-74
2021/05/28 06:29:44;;;;;;;20.17;2.50;;;24.70;77.70;;;;;;5055488;28;20187;-73
2021/05/28 06:32:10;;;;;;;7.03;2.03;;;25.00;78.00;;;;;;5062589;28;20197;-74
2021/05/28 06:34:37;;;;;;;12.27;2.10;;;24.90;79.20;;;;;;5062570;28;20183;-74
2021/05/28 06:37:04;;;;;;;9.13;2.00;;;25.00;80.10;;;;;;5054317;28;20639;-73
2021/05/28 06:39:31;;;;;;;6.63;2.00;;;25.10;79.20;;;;;;5047925;28;20582;-74
2021/05/28 06:41:57;;;;;;;15.93;2.23;;;25.20;79.10;;;;;;5063387;28;20276;-74
2021/05/28 06:44:24;;;;;;;11.00;2.42;;;25.30;81.30;;;;;;5059231;28;20289;-74
2021/05/28 06:46:54;;;;;;;7.55;1.70;;;25.30;82.30;;;;;;5040741;28;20218;-74
2021/05/28 06:49:24;;;;;;;9.63;2.07;;;25.30;81.60;;;;;;5058997;28;20191;-74
2021/05/28 06:51:51;;;;;;;9.20;2.37;;;25.40;82.40;;;;;;5046363;28;20182;-75
2021/05/28 06:54:18;;;;;;;9.68;1.92;;;25.40;80.60;;;;;;5061802;28;20190;-74
2021/05/28 06:56:44;;;;;;;6.30;2.08;;;25.60;81.30;;;;;;5058292;28;20179;-73
2021/05/28 06:59:11;;;;;;;7.72;2.40;;;25.90;78.70;;;;;;5063168;28;20731;-75
2021/05/28 07:01:38;;;;;;;10.77;2.33;;;25.80;81.90;;;;;;5052680;28;20659;-74
2021/05/28 07:04:05;;;;;;;13.95;2.38;;;26.00;81.40;;;;;;5056428;28;20195;-75
2021/05/28 07:06:33;;;;;;;7.00;2.10;;;26.00;80.50;;;;;;5050023;28;20302;-74
2021/05/28 07:09:03;;;;;;;6.72;2.35;;;26.10;76.00;;;;;;5075653;28;20647;-73
2021/05/28 07:11:30;;;;;;;11.27;2.55;;;26.10;78.00;;;;;;5060097;28;20187;-73
2021/05/28 07:13:56;;;;;;;10.35;2.20;;;26.10;81.50;;;;;;5067636;28;20552;-72
2021/05/28 07:16:23;;;;;;;12.77;2.55;;;26.50;74.50;;;;;;5062141;28;20805;-74
2021/05/28 07:18:53;;;;;;;15.02;2.22;;;26.60;75.30;;;;;;5038693;28;20723;-73
2021/05/28 07:21:19;;;;;;;11.70;2.38;;;26.60;78.10;;;;;;5058054;28;20472;-76
2021/05/28 07:23:46;;;;;;;8.35;2.40;;;26.70;77.00;;;;;;5061061;28;20227;-75
2021/05/28 07:26:12;;;;;;;7.60;2.08;;;26.80;76.60;;;;;;5042361;28;20215;-74
2021/05/28 07:28:38;;;;;;;11.05;2.35;;;27.00;81.00;;;;;;5060628;28;20284;-73
2021/05/28 07:31:05;;;;;;;9.00;2.75;;;26.90;83.00;;;;;;5055520;28;20179;-75
2021/05/28 07:33:31;;;;;;;14.75;2.55;;;27.10;82.10;;;;;;5055178;28;20663;-75
2021/05/28 07:35:58;;;;;;;13.93;2.95;;;27.10;82.80;;;;;;5041827;28;20654;-76
2021/05/28 07:38:24;;;;;;;16.40;2.97;;;27.00;83.90;;;;;;5061134;28;20256;-75
2021/05/28 07:40:51;;;;;;;8.38;2.75;;;26.70;85.00;;;;;;5055255;28;20196;-76
2021/05/28 07:43:17;;;;;;;16.60;2.80;;;26.70;83.70;;;;;;5056661;28;20583;-76
2021/05/28 07:45:49;;;;;;;10.90;2.78;;;26.90;83.20;;;;;;5061471;28;20548;-75
2021/05/28 07:48:15;;;;;;;12.55;2.63;;;26.80;86.60;;;;;;5059191;28;20190;-73
2021/05/28 07:50:45;;;;;;;11.48;3.03;;;26.90;84.50;;;;;;5060173;28;20237;-72
2021/05/28 07:53:19;;;;;;;14.30;3.28;;;26.80;85.20;;;;;;5060352;28;20201;-75
2021/05/28 07:55:46;;;;;;;12.40;3.10;;;27.00;87.50;;;;;;5058101;28;20185;-75
2021/05/28 07:58:12;;;;;;;14.52;3.45;;;27.30;89.60;;;;;;5045369;28;20194;-76
2021/05/28 08:00:39;;;;;;;19.20;4.18;;;27.40;91.50;;;;;;5058863;28;20635;-75
2021/05/28 08:03:05;;;;;;;16.50;3.65;;;27.40;91.50;;;;;;5062192;28;20269;-75
2021/05/28 08:05:33;;;;;;;15.95;3.33;;;27.20;91.90;;;;;;5053707;28;20237;-75
2021/05/28 08:08:00;;;;;;;14.65;3.33;;;27.00;92.70;;;;;;5059345;28;20195;-74
2021/05/28 08:10:29;;;;;;;21.60;4.32;;;27.00;93.60;;;;;;5057374;28;20183;-74
2021/05/28 08:12:56;;;;;;;16.88;4.03;;;27.00;93.70;;;;;;5055838;28;20284;-71
2021/05/28 08:15:23;;;;;;;22.55;4.28;;;27.10;93.80;;;;;;5057317;28;20199;-75
2021/05/28 08:17:50;;;;;;;21.20;3.20;;;27.10;93.00;;;;;;5061088;28;20224;-74
2021/05/28 08:20:17;;;;;;;18.88;4.28;;;26.90;90.50;;;;;;5059426;28;20279;-75
2021/05/28 08:22:44;;;;;;;14.40;3.47;;;26.80;92.90;;;;;;5059719;28;20194;-75
2021/05/28 08:25:13;;;;;;;21.17;4.03;;;26.60;92.90;;;;;;5055566;28;20211;-75
2021/05/28 08:27:40;;;;;;;22.80;3.63;;;26.60;90.60;;;;;;5058273;28;20855;-74
2021/05/28 08:30:08;;;;;;;21.27;4.38;;;26.70;87.70;;;;;;5046165;28;20538;-76
2021/05/28 08:32:35;;;;;;;17.85;4.38;;;26.90;84.50;;;;;;5062092;28;20191;-75
2021/05/28 08:35:02;;;;;;;25.08;4.35;;;26.90;85.70;;;;;;5057893;28;20199;-74
2021/05/28 08:37:29;;;;;;;24.83;4.28;;;26.70;88.60;;;;;;5058684;28;20222;-75
2021/05/28 08:39:56;;;;;;;22.75;4.07;;;26.80;90.30;;;;;;5060851;28;20202;-73
2021/05/28 08:42:22;;;;;;;30.50;4.47;;;26.80;91.20;;;;;;5068629;28;20190;-74
2021/05/28 08:44:50;;;;;;;15.65;3.70;;;27.00;91.40;;;;;;5060422;28;20237;-74
2021/05/28 08:47:16;;;;;;;22.35;5.10;;;27.10;92.40;;;;;;5054473;28;20211;-74
2021/05/28 08:49:51;;;;;;;20.58;4.55;;;27.20;93.70;;;;;;5056814;28;20191;-72
2021/05/28 08:52:19;;;;;;;15.73;4.15;;;27.30;94.50;;;;;;5057487;28;20195;-74
2021/05/28 08:54:47;;;;;;;25.17;4.47;;;27.50;95.80;;;;;;5039484;28;20232;-74
2021/05/28 08:57:14;;;;;;;19.23;4.68;;;27.60;96.90;;;;;;5053914;28;20583;-75
2021/05/28 08:59:40;;;;;;;27.42;5.80;;;27.60;98.00;;;;;;5057231;28;20195;-74
2021/05/28 09:02:38;;;;;;;21.92;5.15;;;27.70;99.00;;;;;;5060764;28;20198;-74
2021/05/28 09:05:20;;;;;;;28.02;6.05;;;27.40;99.90;;;;;;5060714;28;20206;-74
2021/05/28 09:07:59;;;;;;;24.77;5.25;;;27.60;99.60;;;;;;5062849;28;20194;-76
2021/05/28 09:10:35;;;;;;;28.20;5.63;;;27.50;99.50;;;;;;5040593;28;20193;-74
2021/05/28 09:13:22;;;;;;;21.05;5.25;;;27.70;99.30;;;;;;5041760;28;20183;-76
2021/05/28 09:16:09;;;;;;;21.55;5.15;;;27.60;98.90;;;;;;5044492;28;20324;-76
2021/05/28 09:18:50;;;;;;;15.38;4.55;;;27.90;98.70;;;;;;5060984;28;20524;-75
2021/05/28 09:21:33;;;;;;;25.98;5.00;;;27.80;97.60;;;;;;5042346;28;20187;-76
2021/05/28 09:24:07;;;;;;;25.23;4.53;;;27.60;98.50;;;;;;5061988;28;20651;-75
2021/05/28 09:26:36;;;;;;;29.00;4.65;;;27.70;98.10;;;;;;5041475;28;20277;-74
2021/05/28 09:29:05;;;;;;;25.00;4.63;;;27.70;98.20;;;;;;5045819;28;20659;-75
2021/05/28 09:31:33;;;;;;;17.30;4.18;;;27.90;97.30;;;;;;5061312;28;20214;-76
2021/05/28 09:34:00;;;;;;;22.35;4.90;;;28.20;96.90;;;;;;5045032;28;20194;-75
2021/05/28 09:36:31;;;;;;;28.42;4.97;;;28.40;96.80;;;;;;5063753;28;20191;-74
2021/05/28 09:39:14;;;;;;;21.52;4.53;;;28.60;97.30;;;;;;5060274;28;20183;-73
2021/05/28 09:42:00;;;;;;;23.08;4.80;;;28.50;95.80;;;;;;5062540;28;20218;-74
2021/05/28 09:44:32;;;;;;;34.92;5.65;;;28.40;95.60;;;;;;5046288;28;20195;-73
2021/05/28 09:47:07;;;;;;;20.35;4.55;;;28.60;95.20;;;;;;5044374;28;20317;-73
2021/05/28 09:49:40;;;;;;;26.42;5.18;;;28.50;95.30;;;;;;5047181;28;20182;-72
2021/05/28 09:52:15;;;;;;;15.75;4.78;;;28.70;95.70;;;;;;5079769;28;20210;-72
2021/05/28 09:55:03;;;;;;;20.73;4.85;;;28.60;96.10;;;;;;5064964;28;20186;-72
2021/05/28 09:57:48;;;;;;;23.77;5.03;;;28.50;95.90;;;;;;5058841;28;20194;-75
2021/05/28 10:00:34;;;;;;;20.02;5.00;;;28.60;96.60;;;;;;5062412;28;20194;-75
2021/05/28 10:03:23;;;;;;;31.27;5.40;;;28.70;96.10;;;;;;5040452;28;20216;-74
2021/05/28 10:05:53;;;;;;;24.88;4.70;;;28.70;96.20;;;;;;5056015;28;20203;-74
2021/05/28 10:08:22;;;;;;;23.73;5.40;;;28.80;96.10;;;;;;5055769;28;20202;-75
2021/05/28 10:10:53;;;;;;;18.05;5.22;;;28.60;95.70;;;;;;5055671;28;20182;-75
2021/05/28 10:13:25;;;;;;;27.17;5.15;;;28.90;96.10;;;;;;5058449;28;20585;-75
2021/05/28 10:15:55;;;;;;;20.88;5.40;;;29.10;95.00;;;;;;5060456;28;20583;-74
2021/05/28 10:18:23;;;;;;;16.15;5.05;;;29.00;94.10;;;;;;5056150;28;20349;-74
2021/05/28 10:20:54;;;;;;;14.20;4.50;;;29.30;93.40;;;;;;5063253;28;20248;-72
2021/05/28 10:23:23;;;;;;;19.25;5.53;;;29.30;91.30;;;;;;5057898;28;20197;-72
2021/05/28 10:25:56;;;;;;;21.13;5.20;;;29.40;90.20;;;;;;5057321;28;20211;-73
2021/05/28 10:28:31;;;;;;;26.92;5.80;;;29.30;89.10;;;;;;5062519;28;20194;-74
2021/05/28 10:30:57;;;;;;;16.85;4.85;;;29.20;87.30;;;;;;5060893;28;20214;-75
2021/05/28 10:33:30;;;;;;;17.48;5.18;;;28.80;78.30;;;;;;5043750;28;20215;-76
2021/05/28 10:36:05;;;;;;;21.02;5.82;;;29.20;77.70;;;;;;5045613;28;20600;-75
2021/05/28 10:38:34;;;;;;;18.60;5.63;;;29.10;75.80;;;;;;5056954;28;20193;-74
2021/05/28 10:41:06;;;;;;;12.60;5.22;;;29.10;73.80;;;;;;5058676;28;20198;-73
2021/05/28 10:43:35;;;;;;;20.40;5.82;;;29.00;73.60;;;;;;5060501;28;20236;-75
2021/05/28 10:46:09;;;;;;;11.80;4.97;;;29.30;63.10;;;;;;5048789;28;21084;-73
2021/05/28 10:48:39;;;;;;;23.42;5.47;;;29.20;61.40;;;;;;5059151;28;20232;-73
2021/05/28 10:51:17;;;;;;;22.02;4.20;;;29.20;60.80;;;;;;5047485;28;20194;-73
2021/05/28 10:53:52;;;;;;;22.10;4.78;;;29.10;66.50;;;;;;5059452;28;20222;-73
2021/05/28 10:56:41;;;;;;;19.63;4.05;;;29.20;70.80;;;;;;5059802;28;20190;-75
2021/05/28 10:59:22;;;;;;;17.40;3.75;;;29.10;79.60;;;;;;5051855;28;20195;-73
2021/05/28 11:02:00;;;;;;;15.93;3.35;;;29.10;82.50;;;;;;5062362;28;20212;-75
2021/05/28 11:04:31;;;;;;;18.50;3.83;;;28.80;81.70;;;;;;5038809;28;20198;-75
2021/05/28 11:06:59;;;;;;;13.07;3.83;;;28.70;84.80;;;;;;5057839;28;20233;-75
2021/05/28 11:09:51;;;;;;;18.80;3.15;;;28.80;82.20;;;;;;5041923;28;20286;-75
2021/05/28 11:12:38;;;;;;;15.50;3.58;;;28.90;78.70;;;;;;5061666;28;20278;-75
2021/05/28 11:15:10;;;;;;;19.88;3.53;;;28.80;79.80;;;;;;5058791;28;20312;-73
2021/05/28 11:18:04;;;;;;;17.23;3.97;;;28.80;83.00;;;;;;5057276;28;20217;-76
2021/05/28 11:20:40;;;;;;;18.08;3.92;;;28.90;82.80;;;;;;5042229;28;20188;-75
2021/05/28 11:23:22;;;;;;;14.63;3.72;;;28.70;82.30;;;;;;5053276;28;20175;-76
2021/05/28 11:25:53;;;;;;;16.45;3.90;;;28.60;85.40;;;;;;5058924;28;20607;-75
2021/05/28 11:28:28;;;;;;;19.20;3.72;;;28.70;85.80;;;;;;5054059;28;20811;-75
2021/05/28 11:31:02;;;;;;;13.07;3.30;;;28.60;86.10;;;;;;5041595;28;20179;-74
2021/05/28 11:33:40;;;;;;;16.30;3.92;;;28.60;81.10;;;;;;5040847;28;20183;-75
2021/05/28 11:36:19;;;;;;;9.05;3.28;;;28.40;83.40;;;;;;5043546;28;20183;-73
2021/05/28 11:39:05;;;;;;;19.33;3.53;;;28.70;89.20;;;;;;5053265;28;20278;-73
2021/05/28 11:41:49;;;;;;;15.07;4.10;;;28.50;90.20;;;;;;5041691;28;20186;-75
2021/05/28 11:44:21;;;;;;;18.33;4.20;;;28.40;91.90;;;;;;5057068;28;20190;-74
2021/05/28 11:46:51;;;;;;;15.27;3.95;;;28.70;91.90;;;;;;5060675;28;20296;-74
2021/05/28 11:49:22;;;;;;;19.05;3.75;;;28.20;92.30;;;;;;5044229;28;20223;-76
2021/05/28 11:52:04;;;;;;;21.45;3.80;;;28.10;91.10;;;;;;5042464;28;20179;-75
2021/05/28 11:54:34;;;;;;;19.10;3.83;;;27.70;90.90;;;;;;5051675;28;20688;-74
2021/05/28 11:57:06;;;;;;;20.40;4.10;;;28.00;90.90;;;;;;5058051;28;20202;-75
2021/05/28 11:59:56;;;;;;;17.23;3.67;;;28.00;90.10;;;;;;5053485;28;20252;-75
2021/05/28 12:02:47;;;;;;;18.35;3.35;;;28.10;87.50;;;;;;5057360;28;20195;-75
2021/05/28 12:05:26;;;;;;;20.33;3.20;;;28.20;86.90;;;;;;5059438;28;20297;-75
2021/05/28 12:07:56;;;;;;;18.33;4.07;;;27.70;85.50;;;;;;5057840;28;20201;-74
2021/05/28 12:10:29;;;;;;;24.80;4.18;;;28.30;85.60;;;;;;5058173;28;20219;-75
2021/05/28 12:12:57;;;;;;;17.98;3.67;;;28.70;83.90;;;;;;5051693;28;21105;-75
2021/05/28 12:15:31;;;;;;;23.05;3.63;;;28.70;83.50;;;;;;5056563;28;20183;-75
2021/05/28 12:18:01;;;;;;;14.98;3.35;;;28.60;81.50;;;;;;5057424;28;20587;-75
2021/05/28 12:20:33;;;;;;;20.50;3.83;;;28.80;80.40;;;;;;5042377;28;20179;-75
2021/05/28 12:23:08;;;;;;;11.70;3.28;;;28.90;79.60;;;;;;5058378;28;20211;-75
2021/05/28 12:25:52;;;;;;;11.05;3.28;;;28.80;79.60;;;;;;5056642;28;20737;-75
2021/05/28 12:28:26;;;;;;;21.40;3.40;;;28.40;80.30;;;;;;5042222;28;20188;-75
2021/05/28 12:31:17;;;;;;;18.15;3.40;;;28.70;81.20;;;;;;5058909;28;20186;-75
2021/05/28 12:34:08;;;;;;;20.20;3.60;;;28.50;80.10;;;;;;5045079;28;20179;-75
2021/05/28 12:36:45;;;;;;;21.35;3.63;;;28.20;80.20;;;;;;5041492;28;20543;-74
2021/05/28 12:39:14;;;;;;;12.65;2.60;;;28.20;79.00;;;;;;5044297;28;20216;-75
2021/05/28 12:41:45;;;;;;;16.52;3.08;;;28.00;80.90;;;;;;5045622;28;20191;-75
2021/05/28 12:44:26;;;;;;;22.08;3.45;;;28.20;81.00;;;;;;5055711;28;20191;-75
2021/05/28 12:46:57;;;;;;;14.27;3.25;;;28.20;82.70;;;;;;5053726;28;20819;-75
2021/05/28 12:49:49;;;;;;;16.65;3.15;;;28.30;82.60;;;;;;5061659;28;20206;-75
2021/05/28 12:52:17;;;;;;;18.98;2.90;;;28.30;78.50;;;;;;5058663;28;20643;-73
2021/05/28 12:55:09;;;;;;;13.40;2.60;;;27.80;80.30;;;;;;5058308;28;20209;-75